Dickens, Iowa
Current Conditions -  °F | °C
As of 8:58 PM on Wednesday 26 Nov 2014 (Local Time) from KSPW Reporting Station
Overcast Overcast  
Wind Chill: -3°   Ceiling: 8500
Heat Index: 12°   Visibility: 10mi
Dew Point:   Wind: 13mph
Humidity: 77%   Direction: 330°NNW
Pressure: 30.37"   Gusts: NA
Location:  43.13°N, 95.02°W
Report Text: KSPW 270258Z AUTO 33011KT 10SM FEW009 SCT013 OVC085 M11/M14 A3037 RMK AO2 T11111144 TSNO
Loading
Personal Weather Stations






























Interactive Weather Map New forecast layout! Learn more

10-Day Weather Forecast

Advertisements
Track Severe Weather on mobile